sensor_id;sensor_type;location;lat;lon;timestamp;temperature;humidity
3418;DHT22;68007;51.312;12.372;2023-04-15T00:00:42;8.60;99.90
3418;DHT22;68007;51.312;12.372;2023-04-15T00:03:09;8.50;99.90
3418;DHT22;68007;51.312;12.372;2023-04-15T00:05:37;8.50;99.90
3418;DHT22;68007;51.312;12.372;2023-04-15T00:08:04;8.50;99.90
3418;DHT22;68007;51.312;12.372;2023-04-15T00:10:34;8.60;99.90
3418;DHT22;68007;51.312;12.372;2023-04-15T00:13:02;8.50;99.90
3418;DHT22;68007;51.312;12.372;2023-04-15T00:15:29;8.50;99.90
3418;DHT22;68007;51.312;12.372;2023-04-15T00:17:57;8.50;99.90
3418;DHT22;68007;51.312;12.372;2023-04-15T00:20:24;8.40;99.90
3418;DHT22;68007;51.312;12.372;2023-04-15T00:22:52;8.50;99.90
3418;DHT22;68007;51.312;12.372;2023-04-15T00:25:19;8.50;99.90
3418;DHT22;68007;51.312;12.372;2023-04-15T00:27:48;8.50;99.90
3418;DHT22;68007;51.312;12.372;2023-04-15T00:30:16;8.50;99.90
3418;DHT22;68007;51.312;12.372;2023-04-15T00:32:44;8.50;99.90
3418;DHT22;68007;51.312;12.372;2023-04-15T00:35:12;8.50;99.90
3418;DHT22;68007;51.312;12.372;2023-04-15T00:37:39;8.40;99.90
3418;DHT22;68007;51.312;12.372;2023-04-15T00:40:11;8.40;99.90
3418;DHT22;68007;51.312;12.372;2023-04-15T00:42:40;8.30;99.90
3418;DHT22;68007;51.312;12.372;2023-04-15T00:45:09;8.40;99.90
3418;DHT22;68007;51.312;12.372;2023-04-15T00:47:38;8.40;99.90
3418;DHT22;68007;51.312;12.372;2023-04-15T00:50:08;8.40;99.90
3418;DHT22;68007;51.312;12.372;2023-04-15T00:52:35;8.50;99.90
3418;DHT22;68007;51.312;12.372;2023-04-15T00:55:04;8.50;99.90
3418;DHT22;68007;51.312;12.372;2023-04-15T00:57:32;8.50;99.90
3418;DHT22;68007;51.312;12.372;2023-04-15T01:00:00;8.40;99.90
3418;DHT22;68007;51.312;12.372;2023-04-15T01:02:30;8.40;99.90
3418;DHT22;68007;51.312;12.372;2023-04-15T01:04:58;8.40;99.90
3418;DHT22;68007;51.312;12.372;2023-04-15T01:07:26;8.50;99.90
3418;DHT22;68007;51.312;12.372;2023-04-15T01:09:53;8.40;99.90
3418;DHT22;68007;51.312;12.372;2023-04-15T01:12:21;8.40;99.90
3418;DHT22;68007;51.312;12.372;2023-04-15T01:14:49;8.50;99.90
3418;DHT22;68007;51.312;12.372;2023-04-15T01:17:17;8.40;99.90
3418;DHT22;68007;51.312;12.372;2023-04-15T01:19:46;8.50;99.90
3418;DHT22;68007;51.312;12.372;2023-04-15T01:22:13;8.40;99.90
3418;DHT22;68007;51.312;12.372;2023-04-15T01:24:43;8.40;99.90
3418;DHT22;68007;51.312;12.372;2023-04-15T01:27:16;8.50;99.90
3418;DHT22;68007;51.312;12.372;2023-04-15T01:29:44;8.40;99.90
3418;DHT22;68007;51.312;12.372;2023-04-15T01:32:12;8.50;99.90
3418;DHT22;68007;51.312;12.372;2023-04-15T01:34:40;8.40;99.90
3418;DHT22;68007;51.312;12.372;2023-04-15T01:37:07;8.50;99.90
3418;DHT22;68007;51.312;12.372;2023-04-15T01:39:35;8.50;99.90
3418;DHT22;68007;51.312;12.372;2023-04-15T01:42:02;8.50;99.90
3418;DHT22;68007;51.312;12.372;2023-04-15T01:44:31;8.50;99.90
3418;DHT22;68007;51.312;12.372;2023-04-15T01:46:59;8.40;99.90
3418;DHT22;68007;51.312;12.372;2023-04-15T01:49:26;8.50;99.90
3418;DHT22;68007;51.312;12.372;2023-04-15T01:51:54;8.50;99.90
3418;DHT22;68007;51.312;12.372;2023-04-15T01:54:21;8.50;99.90
3418;DHT22;68007;51.312;12.372;2023-04-15T01:56:49;8.40;99.90
3418;DHT22;68007;51.312;12.372;2023-04-15T01:59:16;8.40;99.90
3418;DHT22;68007;51.312;12.372;2023-04-15T02:01:45;8.30;99.90
3418;DHT22;68007;51.312;12.372;2023-04-15T02:04:12;8.40;99.90
3418;DHT22;68007;51.312;12.372;2023-04-15T02:06:41;8.40;99.90
3418;DHT22;68007;51.312;12.372;2023-04-15T02:09:09;8.30;99.90
3418;DHT22;68007;51.312;12.372;2023-04-15T02:11:37;8.30;99.90
3418;DHT22;68007;51.312;12.372;2023-04-15T02:14:04;8.30;99.90
3418;DHT22;68007;51.312;12.372;2023-04-15T02:16:32;8.30;99.90
3418;DHT22;68007;51.312;12.372;2023-04-15T02:19:01;8.30;99.90
3418;DHT22;68007;51.312;12.372;2023-04-15T02:21:29;8.30;99.90
3418;DHT22;68007;51.312;12.372;2023-04-15T02:23:57;8.30;99.90
3418;DHT22;68007;51.312;12.372;2023-04-15T02:26:24;8.30;99.90
3418;DHT22;68007;51.312;12.372;2023-04-15T02:28:52;8.20;99.90
3418;DHT22;68007;51.312;12.372;2023-04-15T02:31:19;8.20;99.90
3418;DHT22;68007;51.312;12.372;2023-04-15T02:33:47;8.30;99.90
3418;DHT22;68007;51.312;12.372;2023-04-15T02:36:16;8.30;99.90
3418;DHT22;68007;51.312;12.372;2023-04-15T02:38:43;8.30;99.90
3418;DHT22;68007;51.312;12.372;2023-04-15T02:41:11;8.20;99.90
3418;DHT22;68007;51.312;12.372;2023-04-15T02:43:39;8.20;99.90
3418;DHT22;68007;51.312;12.372;2023-04-15T02:46:06;8.20;99.90
3418;DHT22;68007;51.312;12.372;2023-04-15T02:48:34;8.20;99.90
3418;DHT22;68007;51.312;12.372;2023-04-15T02:51:12;8.20;99.90
3418;DHT22;68007;51.312;12.372;2023-04-15T02:53:41;8.20;99.90
3418;DHT22;68007;51.312;12.372;2023-04-15T02:56:09;8.10;99.90
3418;DHT22;68007;51.312;12.372;2023-04-15T02:58:37;8.00;99.90
3418;DHT22;68007;51.312;12.372;2023-04-15T03:01:05;8.10;99.90
3418;DHT22;68007;51.312;12.372;2023-04-15T03:03:34;8.20;99.90
3418;DHT22;68007;51.312;12.372;2023-04-15T03:06:01;8.30;99.90
3418;DHT22;68007;51.312;12.372;2023-04-15T03:08:29;8.30;99.90
3418;DHT22;68007;51.312;12.372;2023-04-15T03:10:58;8.30;99.90
3418;DHT22;68007;51.312;12.372;2023-04-15T03:13:27;8.30;99.90
3418;DHT22;68007;51.312;12.372;2023-04-15T03:15:55;8.30;99.90
3418;DHT22;68007;51.312;12.372;2023-04-15T03:18:22;8.10;99.90
3418;DHT22;68007;51.312;12.372;2023-04-15T03:20:50;8.10;99.90
3418;DHT22;68007;51.312;12.372;2023-04-15T03:23:17;8.20;99.90
3418;DHT22;68007;51.312;12.372;2023-04-15T03:25:45;8.10;99.90
3418;DHT22;68007;51.312;12.372;2023-04-15T03:28:14;8.20;99.90
3418;DHT22;68007;51.312;12.372;2023-04-15T03:30:41;8.20;99.90
3418;DHT22;68007;51.312;12.372;2023-04-15T03:33:09;8.20;99.90
3418;DHT22;68007;51.312;12.372;2023-04-15T03:35:36;8.20;99.90
3418;DHT22;68007;51.312;12.372;2023-04-15T03:38:04;8.10;99.90
3418;DHT22;68007;51.312;12.372;2023-04-15T03:40:31;8.20;99.90
3418;DHT22;68007;51.312;12.372;2023-04-15T03:42:59;8.20;99.90
3418;DHT22;68007;51.312;12.372;2023-04-15T03:45:28;8.10;99.90
3418;DHT22;68007;51.312;12.372;2023-04-15T03:47:55;8.10;99.90
3418;DHT22;68007;51.312;12.372;2023-04-15T03:50:23;8.00;99.90
3418;DHT22;68007;51.312;12.372;2023-04-15T03:52:51;8.10;99.90
3418;DHT22;68007;51.312;12.372;2023-04-15T03:55:18;8.00;99.90
3418;DHT22;68007;51.312;12.372;2023-04-15T03:57:46;8.10;99.90
3418;DHT22;68007;51.312;12.372;2023-04-15T04:00:13;8.00;99.90
3418;DHT22;68007;51.312;12.372;2023-04-15T04:02:42;8.10;99.90
3418;DHT22;68007;51.312;12.372;2023-04-15T04:05:11;8.10;99.90
3418;DHT22;68007;51.312;12.372;2023-04-15T04:07:38;8.10;99.90
3418;DHT22;68007;51.312;12.372;2023-04-15T04:10:06;8.10;99.90
3418;DHT22;68007;51.312;12.372;2023-04-15T04:12:34;8.10;99.90
3418;DHT22;68007;51.312;12.372;2023-04-15T04:15:02;7.90;99.90
3418;DHT22;68007;51.312;12.372;2023-04-15T04:17:29;8.00;99.90
3418;DHT22;68007;51.312;12.372;2023-04-15T04:19:58;8.00;99.90
3418;DHT22;68007;51.312;12.372;2023-04-15T04:22:25;8.00;99.90
3418;DHT22;68007;51.312;12.372;2023-04-15T04:24:53;8.00;99.90
3418;DHT22;68007;51.312;12.372;2023-04-15T04:27:20;8.00;99.90
3418;DHT22;68007;51.312;12.372;2023-04-15T04:29:48;8.10;99.90
3418;DHT22;68007;51.312;12.372;2023-04-15T04:32:16;8.10;99.90
3418;DHT22;68007;51.312;12.372;2023-04-15T04:34:43;8.10;99.90
3418;DHT22;68007;51.312;12.372;2023-04-15T04:37:12;8.10;99.90
3418;DHT22;68007;51.312;12.372;2023-04-15T04:39:40;8.10;99.90
3418;DHT22;68007;51.312;12.372;2023-04-15T04:42:07;8.10;99.90
3418;DHT22;68007;51.312;12.372;2023-04-15T04:44:35;8.00;99.90
3418;DHT22;68007;51.312;12.372;2023-04-15T04:47:02;8.00;99.90
3418;DHT22;68007;51.312;12.372;2023-04-15T04:49:30;8.00;99.90
3418;DHT22;68007;51.312;12.372;2023-04-15T04:51:57;8.00;99.90
3418;DHT22;68007;51.312;12.372;2023-04-15T04:54:26;8.10;99.90
3418;DHT22;68007;51.312;12.372;2023-04-15T04:56:55;8.00;99.90
3418;DHT22;68007;51.312;12.372;2023-04-15T04:59:23;8.00;99.90
3418;DHT22;68007;51.312;12.372;2023-04-15T05:01:50;8.10;99.90
3418;DHT22;68007;51.312;12.372;2023-04-15T05:04:18;8.10;99.90
3418;DHT22;68007;51.312;12.372;2023-04-15T05:06:45;8.10;99.90
3418;DHT22;68007;51.312;12.372;2023-04-15T05:09:13;8.10;99.90
3418;DHT22;68007;51.312;12.372;2023-04-15T05:11:42;8.10;99.90
3418;DHT22;68007;51.312;12.372;2023-04-15T05:14:09;8.10;99.90
3418;DHT22;68007;51.312;12.372;2023-04-15T05:16:37;8.00;99.90
3418;DHT22;68007;51.312;12.372;2023-04-15T05:19:04;8.10;99.90
3418;DHT22;68007;51.312;12.372;2023-04-15T05:21:32;8.10;99.90
3418;DHT22;68007;51.312;12.372;2023-04-15T05:24:00;8.10;99.90
3418;DHT22;68007;51.312;12.372;2023-04-15T05:26:27;8.10;99.90
3418;DHT22;68007;51.312;12.372;2023-04-15T05:28:56;8.10;99.90
3418;DHT22;68007;51.312;12.372;2023-04-15T05:31:24;8.10;99.90
3418;DHT22;68007;51.312;12.372;2023-04-15T05:33:51;8.10;99.90
3418;DHT22;68007;51.312;12.372;2023-04-15T05:36:19;8.10;99.90
3418;DHT22;68007;51.312;12.372;2023-04-15T05:38:46;8.10;99.90
3418;DHT22;68007;51.312;12.372;2023-04-15T05:41:14;8.00;99.90
3418;DHT22;68007;51.312;12.372;2023-04-15T05:43:41;8.10;99.90
3418;DHT22;68007;51.312;12.372;2023-04-15T05:46:10;8.10;99.90
3418;DHT22;68007;51.312;12.372;2023-04-15T05:48:38;8.10;99.90
3418;DHT22;68007;51.312;12.372;2023-04-15T05:51:05;8.00;99.90
3418;DHT22;68007;51.312;12.372;2023-04-15T05:53:33;8.10;99.90
3418;DHT22;68007;51.312;12.372;2023-04-15T05:56:01;8.10;99.90
3418;DHT22;68007;51.312;12.372;2023-04-15T05:58:28;8.20;99.90
3418;DHT22;68007;51.312;12.372;2023-04-15T06:00:56;8.10;99.90
3418;DHT22;68007;51.312;12.372;2023-04-15T06:03:25;8.10;99.90
3418;DHT22;68007;51.312;12.372;2023-04-15T06:05:52;8.20;99.90
3418;DHT22;68007;51.312;12.372;2023-04-15T06:08:21;8.20;99.90
3418;DHT22;68007;51.312;12.372;2023-04-15T06:10:48;8.20;99.90
3418;DHT22;68007;51.312;12.372;2023-04-15T06:13:16;8.20;99.90
3418;DHT22;68007;51.312;12.372;2023-04-15T06:15:43;8.30;99.90
3418;DHT22;68007;51.312;12.372;2023-04-15T06:18:11;8.30;99.90
3418;DHT22;68007;51.312;12.372;2023-04-15T06:20:39;8.20;99.90
3418;DHT22;68007;51.312;12.372;2023-04-15T06:23:07;8.30;99.90
3418;DHT22;68007;51.312;12.372;2023-04-15T06:25:34;8.30;99.90
3418;DHT22;68007;51.312;12.372;2023-04-15T06:28:02;8.30;99.90
3418;DHT22;68007;51.312;12.372;2023-04-15T06:30:30;8.30;99.90
3418;DHT22;68007;51.312;12.372;2023-04-15T06:32:57;8.30;99.90
3418;DHT22;68007;51.312;12.372;2023-04-15T06:35:25;8.30;99.90
3418;DHT22;68007;51.312;12.372;2023-04-15T06:37:54;8.30;99.90
3418;DHT22;68007;51.312;12.372;2023-04-15T06:40:21;8.30;99.90
3418;DHT22;68007;51.312;12.372;2023-04-15T06:42:49;8.30;99.90
3418;DHT22;68007;51.312;12.372;2023-04-15T06:45:17;8.30;99.90
3418;DHT22;68007;51.312;12.372;2023-04-15T06:47:44;8.30;99.90
3418;DHT22;68007;51.312;12.372;2023-04-15T06:50:12;8.40;99.90
3418;DHT22;68007;51.312;12.372;2023-04-15T06:52:39;8.40;99.90
3418;DHT22;68007;51.312;12.372;2023-04-15T06:55:09;8.40;99.90
3418;DHT22;68007;51.312;12.372;2023-04-15T06:57:36;8.40;99.90
3418;DHT22;68007;51.312;12.372;2023-04-15T07:00:05;8.40;99.90
3418;DHT22;68007;51.312;12.372;2023-04-15T07:02:32;8.50;99.90
3418;DHT22;68007;51.312;12.372;2023-04-15T07:05:00;8.50;99.90
3418;DHT22;68007;51.312;12.372;2023-04-15T07:07:28;8.50;99.90
3418;DHT22;68007;51.312;12.372;2023-04-15T07:09:55;8.50;99.90
3418;DHT22;68007;51.312;12.372;2023-04-15T07:12:24;8.40;99.90
3418;DHT22;68007;51.312;12.372;2023-04-15T07:14:52;8.40;99.90
3418;DHT22;68007;51.312;12.372;2023-04-15T07:17:20;8.40;99.90
3418;DHT22;68007;51.312;12.372;2023-04-15T07:19:48;8.40;99.90
3418;DHT22;68007;51.312;12.372;2023-04-15T07:22:15;8.40;99.90
3418;DHT22;68007;51.312;12.372;2023-04-15T07:24:43;8.40;99.90
3418;DHT22;68007;51.312;12.372;2023-04-15T07:27:10;8.50;99.90
3418;DHT22;68007;51.312;12.372;2023-04-15T07:29:39;8.50;99.90
3418;DHT22;68007;51.312;12.372;2023-04-15T07:32:07;8.50;99.90
3418;DHT22;68007;51.312;12.372;2023-04-15T07:34:35;8.50;99.90
3418;DHT22;68007;51.312;12.372;2023-04-15T07:37:03;8.50;99.90
3418;DHT22;68007;51.312;12.372;2023-04-15T07:39:31;8.60;99.90
3418;DHT22;68007;51.312;12.372;2023-04-15T07:41:58;8.50;99.90
3418;DHT22;68007;51.312;12.372;2023-04-15T07:44:26;8.60;99.90
3418;DHT22;68007;51.312;12.372;2023-04-15T07:46:55;8.60;99.90
3418;DHT22;68007;51.312;12.372;2023-04-15T07:49:23;8.60;99.90
3418;DHT22;68007;51.312;12.372;2023-04-15T07:51:50;8.60;99.90
3418;DHT22;68007;51.312;12.372;2023-04-15T07:54:18;8.60;99.90
3418;DHT22;68007;51.312;12.372;2023-04-15T07:56:46;8.60;99.90
3418;DHT22;68007;51.312;12.372;2023-04-15T07:59:14;8.70;99.90
3418;DHT22;68007;51.312;12.372;2023-04-15T08:01:43;8.60;99.90
3418;DHT22;68007;51.312;12.372;2023-04-15T08:04:11;8.70;99.90
3418;DHT22;68007;51.312;12.372;2023-04-15T08:06:39;8.70;99.90
3418;DHT22;68007;51.312;12.372;2023-04-15T08:09:07;8.70;99.90
3418;DHT22;68007;51.312;12.372;2023-04-15T08:11:34;8.70;99.90
3418;DHT22;68007;51.312;12.372;2023-04-15T08:14:02;8.70;99.90
3418;DHT22;68007;51.312;12.372;2023-04-15T08:16:30;8.70;99.90
3418;DHT22;68007;51.312;12.372;2023-04-15T08:18:57;8.70;99.90
3418;DHT22;68007;51.312;12.372;2023-04-15T08:21:26;8.70;99.90
3418;DHT22;68007;51.312;12.372;2023-04-15T08:23:56;8.70;99.90
3418;DHT22;68007;51.312;12.372;2023-04-15T08:26:23;8.70;99.90
3418;DHT22;68007;51.312;12.372;2023-04-15T08:28:51;8.70;99.90
3418;DHT22;68007;51.312;12.372;2023-04-15T08:31:19;8.80;99.90
3418;DHT22;68007;51.312;12.372;2023-04-15T08:33:47;8.80;99.90
3418;DHT22;68007;51.312;12.372;2023-04-15T08:36:18;8.80;99.90
3418;DHT22;68007;51.312;12.372;2023-04-15T08:38:47;8.80;99.90
3418;DHT22;68007;51.312;12.372;2023-04-15T08:41:20;8.90;99.90
3418;DHT22;68007;51.312;12.372;2023-04-15T08:43:52;8.80;99.90
3418;DHT22;68007;51.312;12.372;2023-04-15T08:46:20;8.90;99.90
3418;DHT22;68007;51.312;12.372;2023-04-15T08:48:49;8.90;99.90
3418;DHT22;68007;51.312;12.372;2023-04-15T08:51:17;8.90;99.90
3418;DHT22;68007;51.312;12.372;2023-04-15T08:53:47;8.90;99.90
3418;DHT22;68007;51.312;12.372;2023-04-15T08:56:16;8.90;99.90
3418;DHT22;68007;51.312;12.372;2023-04-15T08:58:44;8.90;99.90
3418;DHT22;68007;51.312;12.372;2023-04-15T09:01:13;9.00;99.90
3418;DHT22;68007;51.312;12.372;2023-04-15T09:03:41;9.00;99.90
3418;DHT22;68007;51.312;12.372;2023-04-15T09:06:08;9.00;99.90
3418;DHT22;68007;51.312;12.372;2023-04-15T09:08:36;9.10;99.90
3418;DHT22;68007;51.312;12.372;2023-04-15T09:11:05;9.10;99.90
3418;DHT22;68007;51.312;12.372;2023-04-15T09:13:33;9.10;99.90
3418;DHT22;68007;51.312;12.372;2023-04-15T09:16:01;9.10;99.90
3418;DHT22;68007;51.312;12.372;2023-04-15T09:18:31;9.10;99.90
3418;DHT22;68007;51.312;12.372;2023-04-15T09:21:12;9.20;99.90
3418;DHT22;68007;51.312;12.372;2023-04-15T09:23:40;9.20;99.90
3418;DHT22;68007;51.312;12.372;2023-04-15T09:26:09;9.30;99.90
3418;DHT22;68007;51.312;12.372;2023-04-15T09:28:41;9.30;99.90
3418;DHT22;68007;51.312;12.372;2023-04-15T09:31:08;9.30;99.90
3418;DHT22;68007;51.312;12.372;2023-04-15T09:33:53;9.30;99.90
3418;DHT22;68007;51.312;12.372;2023-04-15T09:36:21;9.30;99.90
3418;DHT22;68007;51.312;12.372;2023-04-15T09:38:54;9.30;99.90
3418;DHT22;68007;51.312;12.372;2023-04-15T09:41:24;9.40;99.90
3418;DHT22;68007;51.312;12.372;2023-04-15T09:43:52;9.40;99.90
3418;DHT22;68007;51.312;12.372;2023-04-15T09:46:19;9.40;99.90
3418;DHT22;68007;51.312;12.372;2023-04-15T09:49:06;9.40;99.90
3418;DHT22;68007;51.312;12.372;2023-04-15T09:51:34;9.40;99.90
3418;DHT22;68007;51.312;12.372;2023-04-15T09:54:02;9.40;99.90
3418;DHT22;68007;51.312;12.372;2023-04-15T09:56:33;9.50;99.90
3418;DHT22;68007;51.312;12.372;2023-04-15T09:59:01;9.50;99.90
3418;DHT22;68007;51.312;12.372;2023-04-15T10:01:28;9.50;99.90
3418;DHT22;68007;51.312;12.372;2023-04-15T10:03:56;9.50;99.90
3418;DHT22;68007;51.312;12.372;2023-04-15T10:06:25;9.50;99.90
3418;DHT22;68007;51.312;12.372;2023-04-15T10:08:53;9.60;99.90
3418;DHT22;68007;51.312;12.372;2023-04-15T10:11:22;9.60;99.90
3418;DHT22;68007;51.312;12.372;2023-04-15T10:13:52;9.60;99.90
3418;DHT22;68007;51.312;12.372;2023-04-15T10:16:20;9.60;99.90
3418;DHT22;68007;51.312;12.372;2023-04-15T10:18:54;9.60;99.90
3418;DHT22;68007;51.312;12.372;2023-04-15T10:21:21;9.70;99.90
3418;DHT22;68007;51.312;12.372;2023-04-15T10:23:52;9.70;99.90
3418;DHT22;68007;51.312;12.372;2023-04-15T10:26:20;9.70;99.90
3418;DHT22;68007;51.312;12.372;2023-04-15T10:28:48;9.70;99.90
3418;DHT22;68007;51.312;12.372;2023-04-15T10:31:18;9.80;99.90
3418;DHT22;68007;51.312;12.372;2023-04-15T10:33:47;9.80;99.90
3418;DHT22;68007;51.312;12.372;2023-04-15T10:36:15;9.80;99.90
3418;DHT22;68007;51.312;12.372;2023-04-15T10:38:43;9.90;99.90
3418;DHT22;68007;51.312;12.372;2023-04-15T10:41:13;9.90;99.90
3418;DHT22;68007;51.312;12.372;2023-04-15T10:43:49;9.90;99.90
3418;DHT22;68007;51.312;12.372;2023-04-15T10:46:21;9.90;99.90
3418;DHT22;68007;51.312;12.372;2023-04-15T10:48:50;9.90;99.90
3418;DHT22;68007;51.312;12.372;2023-04-15T10:51:26;10.00;99.90
3418;DHT22;68007;51.312;12.372;2023-04-15T10:53:56;10.00;99.90
3418;DHT22;68007;51.312;12.372;2023-04-15T10:56:25;10.00;99.90
3418;DHT22;68007;51.312;12.372;2023-04-15T10:58:54;10.00;99.90
3418;DHT22;68007;51.312;12.372;2023-04-15T11:01:49;10.00;99.90
3418;DHT22;68007;51.312;12.372;2023-04-15T11:04:50;10.00;99.90
3418;DHT22;68007;51.312;12.372;2023-04-15T11:07:33;10.10;99.90
3418;DHT22;68007;51.312;12.372;2023-04-15T11:10:00;10.10;99.90
3418;DHT22;68007;51.312;12.372;2023-04-15T11:12:34;10.10;99.90
3418;DHT22;68007;51.312;12.372;2023-04-15T11:15:27;10.20;99.90
3418;DHT22;68007;51.312;12.372;2023-04-15T11:17:57;10.20;99.90
3418;DHT22;68007;51.312;12.372;2023-04-15T11:20:25;10.20;99.90
3418;DHT22;68007;51.312;12.372;2023-04-15T11:22:54;10.30;99.90
3418;DHT22;68007;51.312;12.372;2023-04-15T11:25:22;10.30;99.90
3418;DHT22;68007;51.312;12.372;2023-04-15T11:27:49;10.30;99.90
3418;DHT22;68007;51.312;12.372;2023-04-15T11:30:19;10.30;99.90
3418;DHT22;68007;51.312;12.372;2023-04-15T11:32:48;10.40;99.90
3418;DHT22;68007;51.312;12.372;2023-04-15T11:35:17;10.40;99.90
3418;DHT22;68007;51.312;12.372;2023-04-15T11:37:45;10.40;99.90
3418;DHT22;68007;51.312;12.372;2023-04-15T11:40:14;10.40;99.90
3418;DHT22;68007;51.312;12.372;2023-04-15T11:42:43;10.40;99.90
3418;DHT22;68007;51.312;12.372;2023-04-15T11:45:12;10.50;99.90
3418;DHT22;68007;51.312;12.372;2023-04-15T11:47:41;10.50;99.90
3418;DHT22;68007;51.312;12.372;2023-04-15T11:50:17;10.60;99.90
3418;DHT22;68007;51.312;12.372;2023-04-15T11:52:54;10.60;99.90
3418;DHT22;68007;51.312;12.372;2023-04-15T11:55:22;10.50;99.90
3418;DHT22;68007;51.312;12.372;2023-04-15T11:58:04;10.50;99.90
3418;DHT22;68007;51.312;12.372;2023-04-15T12:00:31;10.60;99.90
3418;DHT22;68007;51.312;12.372;2023-04-15T12:03:11;10.60;99.90
3418;DHT22;68007;51.312;12.372;2023-04-15T12:06:07;10.60;99.90
3418;DHT22;68007;51.312;12.372;2023-04-15T12:08:59;10.60;99.90
3418;DHT22;68007;51.312;12.372;2023-04-15T12:11:32;10.60;99.90
3418;DHT22;68007;51.312;12.372;2023-04-15T12:14:04;10.70;99.90
3418;DHT22;68007;51.312;12.372;2023-04-15T12:16:33;10.60;99.90
3418;DHT22;68007;51.312;12.372;2023-04-15T12:19:06;10.60;99.90
3418;DHT22;68007;51.312;12.372;2023-04-15T12:21:38;10.70;99.90
3418;DHT22;68007;51.312;12.372;2023-04-15T12:24:08;10.70;99.90
3418;DHT22;68007;51.312;12.372;2023-04-15T12:26:37;10.70;99.90
3418;DHT22;68007;51.312;12.372;2023-04-15T12:29:10;10.70;99.90
3418;DHT22;68007;51.312;12.372;2023-04-15T12:31:50;10.70;99.90
3418;DHT22;68007;51.312;12.372;2023-04-15T12:34:23;10.80;99.90
3418;DHT22;68007;51.312;12.372;2023-04-15T12:36:53;10.80;99.90
3418;DHT22;68007;51.312;12.372;2023-04-15T12:39:21;10.80;99.90
3418;DHT22;68007;51.312;12.372;2023-04-15T12:41:50;10.80;99.90
3418;DHT22;68007;51.312;12.372;2023-04-15T12:44:18;10.90;99.90
3418;DHT22;68007;51.312;12.372;2023-04-15T12:46:46;10.90;99.90
3418;DHT22;68007;51.312;12.372;2023-04-15T12:49:13;10.90;99.90
3418;DHT22;68007;51.312;12.372;2023-04-15T12:51:41;10.90;99.90
3418;DHT22;68007;51.312;12.372;2023-04-15T12:54:10;11.00;99.90
3418;DHT22;68007;51.312;12.372;2023-04-15T12:56:37;11.00;99.90
3418;DHT22;68007;51.312;12.372;2023-04-15T12:59:05;11.00;99.90
3418;DHT22;68007;51.312;12.372;2023-04-15T13:01:32;11.00;99.90
3418;DHT22;68007;51.312;12.372;2023-04-15T13:04:00;11.00;99.90
3418;DHT22;68007;51.312;12.372;2023-04-15T13:06:28;11.00;99.90
3418;DHT22;68007;51.312;12.372;2023-04-15T13:08:55;11.10;99.90
3418;DHT22;68007;51.312;12.372;2023-04-15T13:11:24;11.10;99.90
3418;DHT22;68007;51.312;12.372;2023-04-15T13:13:52;11.10;99.90
3418;DHT22;68007;51.312;12.372;2023-04-15T13:16:19;11.20;99.90
3418;DHT22;68007;51.312;12.372;2023-04-15T13:18:47;11.20;99.90
3418;DHT22;68007;51.312;12.372;2023-04-15T13:21:15;11.20;99.90
3418;DHT22;68007;51.312;12.372;2023-04-15T13:23:42;11.20;99.90
3418;DHT22;68007;51.312;12.372;2023-04-15T13:26:10;11.20;99.90
3418;DHT22;68007;51.312;12.372;2023-04-15T13:28:39;11.20;99.90
3418;DHT22;68007;51.312;12.372;2023-04-15T13:31:06;11.20;99.90
3418;DHT22;68007;51.312;12.372;2023-04-15T13:33:34;11.20;99.90
3418;DHT22;68007;51.312;12.372;2023-04-15T13:36:02;11.20;99.90
3418;DHT22;68007;51.312;12.372;2023-04-15T13:38:29;11.30;99.90
3418;DHT22;68007;51.312;12.372;2023-04-15T13:40:57;11.30;99.90
3418;DHT22;68007;51.312;12.372;2023-04-15T13:43:25;11.30;99.90
3418;DHT22;68007;51.312;12.372;2023-04-15T13:45:54;11.30;99.90
3418;DHT22;68007;51.312;12.372;2023-04-15T13:48:22;11.30;99.90
3418;DHT22;68007;51.312;12.372;2023-04-15T13:50:49;11.30;99.90
3418;DHT22;68007;51.312;12.372;2023-04-15T13:53:16;11.40;99.90
3418;DHT22;68007;51.312;12.372;2023-04-15T13:55:44;11.30;99.90
3418;DHT22;68007;51.312;12.372;2023-04-15T13:58:11;11.40;99.90
3418;DHT22;68007;51.312;12.372;2023-04-15T14:00:39;11.40;99.90
3418;DHT22;68007;51.312;12.372;2023-04-15T14:03:08;11.40;99.90
3418;DHT22;68007;51.312;12.372;2023-04-15T14:05:36;11.40;99.90
3418;DHT22;68007;51.312;12.372;2023-04-15T14:08:04;11.40;99.90
3418;DHT22;68007;51.312;12.372;2023-04-15T14:10:31;11.40;99.90
3418;DHT22;68007;51.312;12.372;2023-04-15T14:12:59;11.40;99.90
3418;DHT22;68007;51.312;12.372;2023-04-15T14:15:26;11.40;99.90
3418;DHT22;68007;51.312;12.372;2023-04-15T14:17:54;11.40;99.90
3418;DHT22;68007;51.312;12.372;2023-04-15T14:20:23;11.40;99.90
3418;DHT22;68007;51.312;12.372;2023-04-15T14:22:50;11.40;99.90
3418;DHT22;68007;51.312;12.372;2023-04-15T14:25:18;11.50;99.90
3418;DHT22;68007;51.312;12.372;2023-04-15T14:27:45;11.50;99.90
3418;DHT22;68007;51.312;12.372;2023-04-15T14:30:13;11.50;99.90
3418;DHT22;68007;51.312;12.372;2023-04-15T14:32:40;11.50;99.90
3418;DHT22;68007;51.312;12.372;2023-04-15T14:35:08;11.50;99.90
3418;DHT22;68007;51.312;12.372;2023-04-15T14:37:37;11.50;99.90
3418;DHT22;68007;51.312;12.372;2023-04-15T14:40:06;11.50;99.90
3418;DHT22;68007;51.312;12.372;2023-04-15T14:42:33;11.50;99.90
3418;DHT22;68007;51.312;12.372;2023-04-15T14:45:03;11.50;99.90
3418;DHT22;68007;51.312;12.372;2023-04-15T14:47:30;11.60;99.90
3418;DHT22;68007;51.312;12.372;2023-04-15T14:49:58;11.50;99.90
3418;DHT22;68007;51.312;12.372;2023-04-15T14:52:25;11.50;99.90
3418;DHT22;68007;51.312;12.372;2023-04-15T14:54:54;11.50;99.90
3418;DHT22;68007;51.312;12.372;2023-04-15T14:57:22;11.50;99.90
3418;DHT22;68007;51.312;12.372;2023-04-15T14:59:49;11.50;99.90
3418;DHT22;68007;51.312;12.372;2023-04-15T15:02:21;11.50;99.90
3418;DHT22;68007;51.312;12.372;2023-04-15T15:04:49;11.50;99.90
3418;DHT22;68007;51.312;12.372;2023-04-15T15:07:17;11.60;99.90
3418;DHT22;68007;51.312;12.372;2023-04-15T15:09:44;11.60;99.90
3418;DHT22;68007;51.312;12.372;2023-04-15T15:12:13;11.60;99.90
3418;DHT22;68007;51.312;12.372;2023-04-15T15:14:40;11.70;99.90
3418;DHT22;68007;51.312;12.372;2023-04-15T15:17:08;11.60;99.90
3418;DHT22;68007;51.312;12.372;2023-04-15T15:19:36;11.60;99.90
3418;DHT22;68007;51.312;12.372;2023-04-15T15:22:03;11.70;99.90
3418;DHT22;68007;51.312;12.372;2023-04-15T15:24:31;11.70;99.90
3418;DHT22;68007;51.312;12.372;2023-04-15T15:26:58;11.70;99.90
3418;DHT22;68007;51.312;12.372;2023-04-15T15:29:28;11.70;99.90
3418;DHT22;68007;51.312;12.372;2023-04-15T15:31:55;11.70;99.90
3418;DHT22;68007;51.312;12.372;2023-04-15T15:34:23;11.80;99.90
3418;DHT22;68007;51.312;12.372;2023-04-15T15:36:51;11.80;99.90
3418;DHT22;68007;51.312;12.372;2023-04-15T15:39:18;11.80;99.90
3418;DHT22;68007;51.312;12.372;2023-04-15T15:41:46;11.80;99.90
3418;DHT22;68007;51.312;12.372;2023-04-15T15:44:13;11.80;99.90
3418;DHT22;68007;51.312;12.372;2023-04-15T15:46:42;11.80;99.90
3418;DHT22;68007;51.312;12.372;2023-04-15T15:49:10;11.80;99.90
3418;DHT22;68007;51.312;12.372;2023-04-15T15:51:37;11.80;99.90